sensor_id;sensor_type;location;lat;lon;timestamp;P1;durP1;ratioP1;P2;durP2;ratioP2
9938;SDS011;5008;50.656;7.188;2023-01-04T05:00:38;0.70;;;0.50;;
9938;SDS011;5008;50.656;7.188;2023-01-04T05:03:05;0.23;;;0.23;;
9938;SDS011;5008;50.656;7.188;2023-01-04T05:05:32;0.40;;;0.40;;
9938;SDS011;5008;50.656;7.188;2023-01-04T05:07:59;0.50;;;0.30;;
9938;SDS011;5008;50.656;7.188;2023-01-04T05:10:26;0.40;;;0.30;;
9938;SDS011;5008;50.656;7.188;2023-01-04T05:12:52;0.20;;;0.20;;
9938;SDS011;5008;50.656;7.188;2023-01-04T05:15:24;1.80;;;0.30;;
9938;SDS011;5008;50.656;7.188;2023-01-04T05:17:53;0.40;;;0.40;;
9938;SDS011;5008;50.656;7.188;2023-01-04T05:20:20;0.33;;;0.20;;
9938;SDS011;5008;50.656;7.188;2023-01-04T05:22:47;0.40;;;0.40;;
9938;SDS011;5008;50.656;7.188;2023-01-04T05:25:14;0.40;;;0.30;;
9938;SDS011;5008;50.656;7.188;2023-01-04T05:27:41;0.60;;;0.37;;
9938;SDS011;5008;50.656;7.188;2023-01-04T05:30:12;0.27;;;0.27;;
9938;SDS011;5008;50.656;7.188;2023-01-04T05:33:07;0.30;;;0.30;;
9938;SDS011;5008;50.656;7.188;2023-01-04T05:35:34;0.40;;;0.40;;
9938;SDS011;5008;50.656;7.188;2023-01-04T05:38:01;0.30;;;0.30;;
9938;SDS011;5008;50.656;7.188;2023-01-04T05:40:28;0.93;;;0.20;;
9938;SDS011;5008;50.656;7.188;2023-01-04T05:42:55;0.30;;;0.30;;
9938;SDS011;5008;50.656;7.188;2023-01-04T05:45:22;0.30;;;0.30;;
9938;SDS011;5008;50.656;7.188;2023-01-04T05:47:49;0.37;;;0.30;;
9938;SDS011;5008;50.656;7.188;2023-01-04T05:50:19;0.20;;;0.20;;
9938;SDS011;5008;50.656;7.188;2023-01-04T05:52:47;0.50;;;0.20;;
9938;SDS011;5008;50.656;7.188;2023-01-04T05:55:14;0.40;;;0.23;;
9938;SDS011;5008;50.656;7.188;2023-01-04T05:57:41;0.37;;;0.30;;
9938;SDS011;5008;50.656;7.188;2023-01-04T06:00:09;0.77;;;0.30;;
9938;SDS011;5008;50.656;7.188;2023-01-04T06:02:37;0.60;;;0.33;;
9938;SDS011;5008;50.656;7.188;2023-01-04T06:05:06;0.57;;;0.30;;
9938;SDS011;5008;50.656;7.188;2023-01-04T06:07:36;0.33;;;0.27;;
9938;SDS011;5008;50.656;7.188;2023-01-04T06:10:10;0.27;;;0.27;;
9938;SDS011;5008;50.656;7.188;2023-01-04T06:12:37;0.20;;;0.20;;
9938;SDS011;5008;50.656;7.188;2023-01-04T06:15:05;0.30;;;0.30;;
9938;SDS011;5008;50.656;7.188;2023-01-04T06:17:33;0.50;;;0.40;;
9938;SDS011;5008;50.656;7.188;2023-01-04T06:20:03;0.30;;;0.30;;
9938;SDS011;5008;50.656;7.188;2023-01-04T06:22:30;0.87;;;0.30;;
9938;SDS011;5008;50.656;7.188;2023-01-04T06:24:59;0.10;;;0.10;;
9938;SDS011;5008;50.656;7.188;2023-01-04T06:27:26;0.23;;;0.20;;
9938;SDS011;5008;50.656;7.188;2023-01-04T06:29:52;0.30;;;0.20;;
9938;SDS011;5008;50.656;7.188;2023-01-04T06:32:19;0.10;;;0.10;;
9938;SDS011;5008;50.656;7.188;2023-01-04T06:37:43;0.77;;;0.30;;
9938;SDS011;5008;50.656;7.188;2023-01-04T06:40:11;0.10;;;0.10;;
9938;SDS011;5008;50.656;7.188;2023-01-04T06:42:38;1.47;;;0.13;;
9938;SDS011;5008;50.656;7.188;2023-01-04T06:45:10;0.10;;;0.10;;
9938;SDS011;5008;50.656;7.188;2023-01-04T06:47:38;0.10;;;0.10;;
9938;SDS011;5008;50.656;7.188;2023-01-04T06:50:05;0.43;;;0.20;;
9938;SDS011;5008;50.656;7.188;2023-01-04T06:52:33;0.70;;;0.30;;
9938;SDS011;5008;50.656;7.188;2023-01-04T06:55:01;0.20;;;0.20;;
9938;SDS011;5008;50.656;7.188;2023-01-04T06:57:29;0.20;;;0.20;;
9938;SDS011;5008;50.656;7.188;2023-01-04T06:59:56;0.17;;;0.17;;
9938;SDS011;5008;50.656;7.188;2023-01-04T07:02:23;1.03;;;0.27;;
9938;SDS011;5008;50.656;7.188;2023-01-04T07:04:50;0.33;;;0.33;;
9938;SDS011;5008;50.656;7.188;2023-01-04T07:07:18;0.10;;;0.10;;
9938;SDS011;5008;50.656;7.188;2023-01-04T07:09:45;1.53;;;0.30;;
9938;SDS011;5008;50.656;7.188;2023-01-04T07:12:12;0.20;;;0.20;;
9938;SDS011;5008;50.656;7.188;2023-01-04T07:14:43;0.23;;;0.20;;
9938;SDS011;5008;50.656;7.188;2023-01-04T07:17:10;0.20;;;0.20;;
9938;SDS011;5008;50.656;7.188;2023-01-04T07:19:37;0.10;;;0.10;;
9938;SDS011;5008;50.656;7.188;2023-01-04T07:22:12;0.37;;;0.13;;
9938;SDS011;5008;50.656;7.188;2023-01-04T07:24:39;0.33;;;0.30;;
9938;SDS011;5008;50.656;7.188;2023-01-04T07:27:07;0.20;;;0.20;;
9938;SDS011;5008;50.656;7.188;2023-01-04T07:29:36;0.97;;;0.20;;
9938;SDS011;5008;50.656;7.188;2023-01-04T07:32:15;0.40;;;0.30;;
9938;SDS011;5008;50.656;7.188;2023-01-04T07:34:42;0.80;;;0.20;;
9938;SDS011;5008;50.656;7.188;2023-01-04T07:37:10;1.70;;;0.30;;
9938;SDS011;5008;50.656;7.188;2023-01-04T07:39:39;0.10;;;0.10;;
9938;SDS011;5008;50.656;7.188;2023-01-04T07:42:06;0.33;;;0.20;;
9938;SDS011;5008;50.656;7.188;2023-01-04T07:44:33;0.10;;;0.10;;
9938;SDS011;5008;50.656;7.188;2023-01-04T07:47:00;0.20;;;0.20;;
9938;SDS011;5008;50.656;7.188;2023-01-04T07:49:28;0.10;;;0.10;;
9938;SDS011;5008;50.656;7.188;2023-01-04T07:51:55;0.20;;;0.20;;
9938;SDS011;5008;50.656;7.188;2023-01-04T07:54:22;0.20;;;0.17;;
9938;SDS011;5008;50.656;7.188;2023-01-04T07:56:49;0.13;;;0.13;;
9938;SDS011;5008;50.656;7.188;2023-01-04T07:59:16;0.10;;;0.10;;
9938;SDS011;5008;50.656;7.188;2023-01-04T08:01:54;0.40;;;0.20;;
9938;SDS011;5008;50.656;7.188;2023-01-04T08:04:26;0.10;;;0.10;;
9938;SDS011;5008;50.656;7.188;2023-01-04T08:06:55;0.50;;;0.30;;
9938;SDS011;5008;50.656;7.188;2023-01-04T08:09:21;0.20;;;0.20;;
9938;SDS011;5008;50.656;7.188;2023-01-04T08:14:37;0.30;;;0.20;;
9938;SDS011;5008;50.656;7.188;2023-01-04T08:17:04;0.30;;;0.30;;
9938;SDS011;5008;50.656;7.188;2023-01-04T08:19:32;0.27;;;0.27;;
9938;SDS011;5008;50.656;7.188;2023-01-04T08:21:59;0.20;;;0.10;;
9938;SDS011;5008;50.656;7.188;2023-01-04T08:24:26;0.40;;;0.20;;
9938;SDS011;5008;50.656;7.188;2023-01-04T08:26:53;0.20;;;0.20;;
9938;SDS011;5008;50.656;7.188;2023-01-04T08:29:20;0.13;;;0.13;;
9938;SDS011;5008;50.656;7.188;2023-01-04T08:31:47;0.30;;;0.13;;
9938;SDS011;5008;50.656;7.188;2023-01-04T08:34:14;0.30;;;0.20;;
9938;SDS011;5008;50.656;7.188;2023-01-04T08:36:46;0.30;;;0.30;;
9938;SDS011;5008;50.656;7.188;2023-01-04T08:39:14;0.20;;;0.20;;
9938;SDS011;5008;50.656;7.188;2023-01-04T08:41:40;0.30;;;0.30;;
9938;SDS011;5008;50.656;7.188;2023-01-04T08:44:17;1.10;;;0.20;;
9938;SDS011;5008;50.656;7.188;2023-01-04T08:46:45;0.10;;;0.10;;
9938;SDS011;5008;50.656;7.188;2023-01-04T08:49:12;0.33;;;0.30;;
9938;SDS011;5008;50.656;7.188;2023-01-04T08:51:39;0.93;;;0.23;;
9938;SDS011;5008;50.656;7.188;2023-01-04T08:54:07;0.10;;;0.10;;
9938;SDS011;5008;50.656;7.188;2023-01-04T08:56:35;0.13;;;0.13;;
9938;SDS011;5008;50.656;7.188;2023-01-04T08:59:02;0.20;;;0.20;;
9938;SDS011;5008;50.656;7.188;2023-01-04T09:01:30;0.10;;;0.10;;
9938;SDS011;5008;50.656;7.188;2023-01-04T09:03:57;0.37;;;0.30;;
9938;SDS011;5008;50.656;7.188;2023-01-04T09:06:31;0.47;;;0.30;;
9938;SDS011;5008;50.656;7.188;2023-01-04T09:08:58;0.40;;;0.40;;
9938;SDS011;5008;50.656;7.188;2023-01-04T09:11:26;0.10;;;0.10;;
9938;SDS011;5008;50.656;7.188;2023-01-04T09:13:53;0.30;;;0.30;;
9938;SDS011;5008;50.656;7.188;2023-01-04T09:16:21;0.20;;;0.20;;
9938;SDS011;5008;50.656;7.188;2023-01-04T09:18:48;0.23;;;0.10;;
9938;SDS011;5008;50.656;7.188;2023-01-04T09:21:16;0.37;;;0.30;;
9938;SDS011;5008;50.656;7.188;2023-01-04T09:23:44;0.40;;;0.40;;
9938;SDS011;5008;50.656;7.188;2023-01-04T09:26:16;0.10;;;0.10;;
9938;SDS011;5008;50.656;7.188;2023-01-04T09:29:00;0.80;;;0.80;;
9938;SDS011;5008;50.656;7.188;2023-01-04T09:31:28;0.87;;;0.30;;
9938;SDS011;5008;50.656;7.188;2023-01-04T09:33:55;0.13;;;0.13;;
9938;SDS011;5008;50.656;7.188;2023-01-04T09:36:22;0.10;;;0.10;;
9938;SDS011;5008;50.656;7.188;2023-01-04T09:38:49;0.80;;;0.40;;
9938;SDS011;5008;50.656;7.188;2023-01-04T09:41:26;0.30;;;0.30;;
9938;SDS011;5008;50.656;7.188;2023-01-04T09:44:02;0.30;;;0.23;;
9938;SDS011;5008;50.656;7.188;2023-01-04T09:46:43;0.30;;;0.30;;
9938;SDS011;5008;50.656;7.188;2023-01-04T09:49:16;0.37;;;0.37;;
9938;SDS011;5008;50.656;7.188;2023-01-04T09:51:48;0.40;;;0.40;;
9938;SDS011;5008;50.656;7.188;2023-01-04T09:54:23;0.30;;;0.23;;
9938;SDS011;5008;50.656;7.188;2023-01-04T09:56:56;0.53;;;0.50;;
9938;SDS011;5008;50.656;7.188;2023-01-04T09:59:29;0.40;;;0.40;;
9938;SDS011;5008;50.656;7.188;2023-01-04T10:02:00;0.50;;;0.30;;
9938;SDS011;5008;50.656;7.188;2023-01-04T10:04:35;0.20;;;0.20;;
9938;SDS011;5008;50.656;7.188;2023-01-04T10:07:11;0.20;;;0.20;;
9938;SDS011;5008;50.656;7.188;2023-01-04T10:09:43;0.30;;;0.30;;
9938;SDS011;5008;50.656;7.188;2023-01-04T10:12:19;0.30;;;0.30;;
9938;SDS011;5008;50.656;7.188;2023-01-04T10:14:58;0.40;;;0.40;;
9938;SDS011;5008;50.656;7.188;2023-01-04T10:20:59;0.40;;;0.40;;
9938;SDS011;5008;50.656;7.188;2023-01-04T10:23:45;0.40;;;0.40;;
9938;SDS011;5008;50.656;7.188;2023-01-04T10:26:24;0.50;;;0.40;;
9938;SDS011;5008;50.656;7.188;2023-01-04T10:29:06;0.83;;;0.33;;
9938;SDS011;5008;50.656;7.188;2023-01-04T10:31:50;0.47;;;0.40;;
9938;SDS011;5008;50.656;7.188;2023-01-04T10:34:22;0.30;;;0.30;;
9938;SDS011;5008;50.656;7.188;2023-01-04T10:36:51;0.53;;;0.53;;
9938;SDS011;5008;50.656;7.188;2023-01-04T10:39:26;0.50;;;0.40;;
9938;SDS011;5008;50.656;7.188;2023-01-04T10:41:57;0.43;;;0.30;;
9938;SDS011;5008;50.656;7.188;2023-01-04T10:44:27;0.30;;;0.30;;
9938;SDS011;5008;50.656;7.188;2023-01-04T10:47:04;0.70;;;0.40;;
9938;SDS011;5008;50.656;7.188;2023-01-04T10:49:40;0.20;;;0.20;;
9938;SDS011;5008;50.656;7.188;2023-01-04T10:52:11;0.40;;;0.40;;
9938;SDS011;5008;50.656;7.188;2023-01-04T10:54:43;0.40;;;0.40;;
9938;SDS011;5008;50.656;7.188;2023-01-04T10:57:15;0.37;;;0.37;;
9938;SDS011;5008;50.656;7.188;2023-01-04T11:00:03;0.43;;;0.40;;
9938;SDS011;5008;50.656;7.188;2023-01-04T11:02:49;0.73;;;0.53;;
9938;SDS011;5008;50.656;7.188;2023-01-04T11:05:23;0.73;;;0.43;;
9938;SDS011;5008;50.656;7.188;2023-01-04T11:07:54;1.00;;;0.33;;
9938;SDS011;5008;50.656;7.188;2023-01-04T11:10:25;0.10;;;0.10;;
9938;SDS011;5008;50.656;7.188;2023-01-04T11:12:55;1.43;;;0.63;;
9938;SDS011;5008;50.656;7.188;2023-01-04T11:15:24;0.93;;;0.40;;
9938;SDS011;5008;50.656;7.188;2023-01-04T11:17:51;0.47;;;0.40;;
9938;SDS011;5008;50.656;7.188;2023-01-04T11:20:18;1.00;;;0.30;;
9938;SDS011;5008;50.656;7.188;2023-01-04T11:22:46;0.40;;;0.33;;
9938;SDS011;5008;50.656;7.188;2023-01-04T11:25:19;0.43;;;0.20;;
9938;SDS011;5008;50.656;7.188;2023-01-04T11:27:49;0.77;;;0.20;;
9938;SDS011;5008;50.656;7.188;2023-01-04T11:30:20;0.23;;;0.23;;
9938;SDS011;5008;50.656;7.188;2023-01-04T11:32:52;0.23;;;0.23;;
9938;SDS011;5008;50.656;7.188;2023-01-04T11:35:35;0.67;;;0.23;;
9938;SDS011;5008;50.656;7.188;2023-01-04T11:38:11;0.30;;;0.30;;
9938;SDS011;5008;50.656;7.188;2023-01-04T11:40:40;0.30;;;0.20;;
9938;SDS011;5008;50.656;7.188;2023-01-04T11:43:19;0.20;;;0.20;;
9938;SDS011;5008;50.656;7.188;2023-01-04T11:45:54;0.20;;;0.20;;
9938;SDS011;5008;50.656;7.188;2023-01-04T11:48:32;0.30;;;0.20;;
9938;SDS011;5008;50.656;7.188;2023-01-04T11:51:00;0.20;;;0.20;;
9938;SDS011;5008;50.656;7.188;2023-01-04T11:53:29;1.50;;;0.30;;
9938;SDS011;5008;50.656;7.188;2023-01-04T11:56:11;2.00;;;0.30;;
9938;SDS011;5008;50.656;7.188;2023-01-04T11:58:43;0.37;;;0.37;;
9938;SDS011;5008;50.656;7.188;2023-01-04T12:04:17;0.30;;;0.30;;
9938;SDS011;5008;50.656;7.188;2023-01-04T12:06:47;0.20;;;0.20;;
9938;SDS011;5008;50.656;7.188;2023-01-04T12:09:18;0.17;;;0.10;;
9938;SDS011;5008;50.656;7.188;2023-01-04T12:11:52;0.10;;;0.10;;
9938;SDS011;5008;50.656;7.188;2023-01-04T12:14:22;0.20;;;0.20;;
9938;SDS011;5008;50.656;7.188;2023-01-04T12:16:52;0.53;;;0.20;;
9938;SDS011;5008;50.656;7.188;2023-01-04T12:19:26;1.57;;;0.50;;
9938;SDS011;5008;50.656;7.188;2023-01-04T12:21:54;0.20;;;0.20;;
9938;SDS011;5008;50.656;7.188;2023-01-04T12:24:24;0.37;;;0.20;;
9938;SDS011;5008;50.656;7.188;2023-01-04T12:26:54;0.17;;;0.10;;
9938;SDS011;5008;50.656;7.188;2023-01-04T12:35:06;0.27;;;0.20;;
9938;SDS011;5008;50.656;7.188;2023-01-04T12:38:29;0.50;;;0.20;;
9938;SDS011;5008;50.656;7.188;2023-01-04T12:47:49;0.50;;;0.50;;
9938;SDS011;5008;50.656;7.188;2023-01-04T12:53:47;0.20;;;0.20;;
9938;SDS011;5008;50.656;7.188;2023-01-04T12:56:20;0.30;;;0.20;;
9938;SDS011;5008;50.656;7.188;2023-01-04T13:01:33;0.33;;;0.23;;
9938;SDS011;5008;50.656;7.188;2023-01-04T13:04:02;0.90;;;0.33;;
9938;SDS011;5008;50.656;7.188;2023-01-04T13:14:47;0.20;;;0.20;;
9938;SDS011;5008;50.656;7.188;2023-01-04T13:17:17;0.10;;;0.10;;
9938;SDS011;5008;50.656;7.188;2023-01-04T13:35:20;0.60;;;0.47;;
9938;SDS011;5008;50.656;7.188;2023-01-04T13:37:50;0.20;;;0.20;;
9938;SDS011;5008;50.656;7.188;2023-01-04T13:40:23;0.30;;;0.30;;
9938;SDS011;5008;50.656;7.188;2023-01-04T13:42:56;0.30;;;0.30;;
9938;SDS011;5008;50.656;7.188;2023-01-04T13:45:47;0.50;;;0.27;;
9938;SDS011;5008;50.656;7.188;2023-01-04T13:48:22;0.53;;;0.20;;
9938;SDS011;5008;50.656;7.188;2023-01-04T13:50:59;0.63;;;0.40;;
9938;SDS011;5008;50.656;7.188;2023-01-04T13:53:27;0.30;;;0.30;;
9938;SDS011;5008;50.656;7.188;2023-01-04T13:55:57;0.10;;;0.10;;
9938;SDS011;5008;50.656;7.188;2023-01-04T13:58:28;0.40;;;0.30;;
9938;SDS011;5008;50.656;7.188;2023-01-04T14:00:59;0.20;;;0.20;;
9938;SDS011;5008;50.656;7.188;2023-01-04T14:03:31;0.33;;;0.33;;
9938;SDS011;5008;50.656;7.188;2023-01-04T14:06:22;0.20;;;0.20;;
9938;SDS011;5008;50.656;7.188;2023-01-04T14:08:59;0.30;;;0.30;;
9938;SDS011;5008;50.656;7.188;2023-01-04T14:11:31;0.80;;;0.27;;
9938;SDS011;5008;50.656;7.188;2023-01-04T14:14:37;0.07;;;0.07;;
9938;SDS011;5008;50.656;7.188;2023-01-04T14:17:12;0.73;;;0.30;;
9938;SDS011;5008;50.656;7.188;2023-01-04T14:19:48;0.10;;;0.10;;
9938;SDS011;5008;50.656;7.188;2023-01-04T14:22:28;0.10;;;0.10;;
9938;SDS011;5008;50.656;7.188;2023-01-04T14:25:42;0.20;;;0.20;;
9938;SDS011;5008;50.656;7.188;2023-01-04T14:28:30;0.10;;;0.10;;
9938;SDS011;5008;50.656;7.188;2023-01-04T14:31:24;0.20;;;0.20;;
9938;SDS011;5008;50.656;7.188;2023-01-04T14:33:55;0.20;;;0.20;;
9938;SDS011;5008;50.656;7.188;2023-01-04T14:36:25;0.30;;;0.30;;
9938;SDS011;5008;50.656;7.188;2023-01-04T14:39:11;0.87;;;0.40;;
9938;SDS011;5008;50.656;7.188;2023-01-04T14:41:55;1.07;;;0.77;;
9938;SDS011;5008;50.656;7.188;2023-01-04T14:44:28;0.43;;;0.40;;
9938;SDS011;5008;50.656;7.188;2023-01-04T14:47:00;0.20;;;0.20;;
9938;SDS011;5008;50.656;7.188;2023-01-04T14:49:36;0.20;;;0.20;;
9938;SDS011;5008;50.656;7.188;2023-01-04T14:52:08;0.10;;;0.10;;
9938;SDS011;5008;50.656;7.188;2023-01-04T14:54:49;0.10;;;0.10;;
9938;SDS011;5008;50.656;7.188;2023-01-04T14:57:19;0.20;;;0.20;;
9938;SDS011;5008;50.656;7.188;2023-01-04T15:06:09;0.70;;;0.40;;
9938;SDS011;5008;50.656;7.188;2023-01-04T15:08:40;0.10;;;0.10;;
9938;SDS011;5008;50.656;7.188;2023-01-04T15:11:11;0.83;;;0.33;;
9938;SDS011;5008;50.656;7.188;2023-01-04T15:13:39;0.10;;;0.10;;
9938;SDS011;5008;50.656;7.188;2023-01-04T15:16:17;0.10;;;0.10;;
9938;SDS011;5008;50.656;7.188;2023-01-04T15:18:44;0.30;;;0.20;;
9938;SDS011;5008;50.656;7.188;2023-01-04T15:21:11;0.17;;;0.17;;
9938;SDS011;5008;50.656;7.188;2023-01-04T15:23:39;0.83;;;0.30;;
9938;SDS011;5008;50.656;7.188;2023-01-04T15:26:06;0.63;;;0.20;;
9938;SDS011;5008;50.656;7.188;2023-01-04T15:31:49;0.47;;;0.43;;
9938;SDS011;5008;50.656;7.188;2023-01-04T15:34:28;0.33;;;0.33;;
9938;SDS011;5008;50.656;7.188;2023-01-04T15:37:08;0.47;;;0.47;;
9938;SDS011;5008;50.656;7.188;2023-01-04T15:39:47;0.50;;;0.50;;
9938;SDS011;5008;50.656;7.188;2023-01-04T15:42:22;1.03;;;0.50;;
9938;SDS011;5008;50.656;7.188;2023-01-04T15:45:10;0.30;;;0.30;;
9938;SDS011;5008;50.656;7.188;2023-01-04T15:47:37;0.83;;;0.60;;
9938;SDS011;5008;50.656;7.188;2023-01-04T15:50:08;0.10;;;0.10;;
9938;SDS011;5008;50.656;7.188;2023-01-04T15:52:38;0.27;;;0.27;;
9938;SDS011;5008;50.656;7.188;2023-01-04T15:55:05;0.70;;;0.40;;
9938;SDS011;5008;50.656;7.188;2023-01-04T15:57:32;0.73;;;0.40;;
9938;SDS011;5008;50.656;7.188;2023-01-04T16:00:01;0.70;;;0.47;;
9938;SDS011;5008;50.656;7.188;2023-01-04T16:02:30;0.30;;;0.30;;
9938;SDS011;5008;50.656;7.188;2023-01-04T16:04:57;0.40;;;0.40;;
9938;SDS011;5008;50.656;7.188;2023-01-04T16:07:24;0.37;;;0.37;;
9938;SDS011;5008;50.656;7.188;2023-01-04T16:09:51;0.40;;;0.40;;
9938;SDS011;5008;50.656;7.188;2023-01-04T16:12:17;0.30;;;0.30;;
9938;SDS011;5008;50.656;7.188;2023-01-04T16:15:02;0.70;;;0.70;;
9938;SDS011;5008;50.656;7.188;2023-01-04T16:17:30;0.50;;;0.50;;
9938;SDS011;5008;50.656;7.188;2023-01-04T16:19:57;0.30;;;0.30;;
9938;SDS011;5008;50.656;7.188;2023-01-04T16:22:24;1.40;;;0.40;;
9938;SDS011;5008;50.656;7.188;2023-01-04T16:24:51;1.07;;;0.70;;
9938;SDS011;5008;50.656;7.188;2023-01-04T16:27:17;0.50;;;0.50;;
9938;SDS011;5008;50.656;7.188;2023-01-04T16:29:44;0.60;;;0.60;;
9938;SDS011;5008;50.656;7.188;2023-01-04T16:32:11;0.40;;;0.40;;
9938;SDS011;5008;50.656;7.188;2023-01-04T16:34:39;0.43;;;0.43;;
9938;SDS011;5008;50.656;7.188;2023-01-04T16:37:06;0.60;;;0.60;;
9938;SDS011;5008;50.656;7.188;2023-01-04T16:39:33;0.57;;;0.53;;
9938;SDS011;5008;50.656;7.188;2023-01-04T16:42:02;0.37;;;0.37;;
9938;SDS011;5008;50.656;7.188;2023-01-04T16:44:29;1.90;;;0.60;;
9938;SDS011;5008;50.656;7.188;2023-01-04T16:46:55;0.30;;;0.30;;
9938;SDS011;5008;50.656;7.188;2023-01-04T16:49:22;0.97;;;0.60;;
9938;SDS011;5008;50.656;7.188;2023-01-04T16:51:50;0.40;;;0.40;;
9938;SDS011;5008;50.656;7.188;2023-01-04T16:54:17;0.40;;;0.33;;
9938;SDS011;5008;50.656;7.188;2023-01-04T16:56:45;2.60;;;2.40;;
9938;SDS011;5008;50.656;7.188;2023-01-04T16:59:13;1.20;;;1.10;;
9938;SDS011;5008;50.656;7.188;2023-01-04T17:01:42;0.67;;;0.53;;
9938;SDS011;5008;50.656;7.188;2023-01-04T17:04:11;0.97;;;0.70;;
9938;SDS011;5008;50.656;7.188;2023-01-04T17:06:40;0.90;;;0.87;;
9938;SDS011;5008;50.656;7.188;2023-01-04T17:09:11;1.50;;;1.20;;
9938;SDS011;5008;50.656;7.188;2023-01-04T17:11:39;0.77;;;0.77;;
9938;SDS011;5008;50.656;7.188;2023-01-04T17:14:06;1.60;;;1.50;;
9938;SDS011;5008;50.656;7.188;2023-01-04T17:16:35;0.77;;;0.53;;
9938;SDS011;5008;50.656;7.188;2023-01-04T17:19:02;0.50;;;0.40;;
9938;SDS011;5008;50.656;7.188;2023-01-04T17:21:29;0.20;;;0.20;;
9938;SDS011;5008;50.656;7.188;2023-01-04T17:23:56;0.40;;;0.40;;
9938;SDS011;5008;50.656;7.188;2023-01-04T17:26:26;0.60;;;0.60;;
9938;SDS011;5008;50.656;7.188;2023-01-04T17:28:56;0.50;;;0.40;;
9938;SDS011;5008;50.656;7.188;2023-01-04T17:31:24;0.20;;;0.20;;
9938;SDS011;5008;50.656;7.188;2023-01-04T17:33:53;0.40;;;0.40;;
9938;SDS011;5008;50.656;7.188;2023-01-04T17:36:20;0.30;;;0.27;;
9938;SDS011;5008;50.656;7.188;2023-01-04T17:38:47;0.40;;;0.40;;
9938;SDS011;5008;50.656;7.188;2023-01-04T17:41:15;0.40;;;0.40;;
9938;SDS011;5008;50.656;7.188;2023-01-04T17:43:45;1.57;;;1.47;;
9938;SDS011;5008;50.656;7.188;2023-01-04T17:46:14;0.63;;;0.63;;
9938;SDS011;5008;50.656;7.188;2023-01-04T17:48:42;0.87;;;0.60;;
9938;SDS011;5008;50.656;7.188;2023-01-04T17:51:10;1.13;;;0.80;;
9938;SDS011;5008;50.656;7.188;2023-01-04T17:53:38;0.87;;;0.80;;
9938;SDS011;5008;50.656;7.188;2023-01-04T17:56:06;2.73;;;1.10;;
9938;SDS011;5008;50.656;7.188;2023-01-04T17:58:34;3.40;;;1.27;;
9938;SDS011;5008;50.656;7.188;2023-01-04T18:01:07;2.63;;;1.07;;
9938;SDS011;5008;50.656;7.188;2023-01-04T18:03:35;3.50;;;1.23;;
9938;SDS011;5008;50.656;7.188;2023-01-04T18:06:02;2.50;;;1.60;;
9938;SDS011;5008;50.656;7.188;2023-01-04T18:08:29;10.37;;;2.23;;
9938;SDS011;5008;50.656;7.188;2023-01-04T18:10:55;6.03;;;1.70;;
9938;SDS011;5008;50.656;7.188;2023-01-04T18:13:22;2.93;;;1.43;;
9938;SDS011;5008;50.656;7.188;2023-01-04T18:15:49;5.17;;;1.97;;
9938;SDS011;5008;50.656;7.188;2023-01-04T18:18:17;4.23;;;1.63;;
9938;SDS011;5008;50.656;7.188;2023-01-04T18:20:44;6.83;;;1.63;;
9938;SDS011;5008;50.656;7.188;2023-01-04T18:23:11;5.90;;;2.07;;
9938;SDS011;5008;50.656;7.188;2023-01-04T18:25:38;6.17;;;2.13;;
9938;SDS011;5008;50.656;7.188;2023-01-04T18:28:04;7.90;;;1.97;;
9938;SDS011;5008;50.656;7.188;2023-01-04T18:30:33;4.60;;;1.97;;
9938;SDS011;5008;50.656;7.188;2023-01-04T18:33:01;2.97;;;1.90;;
9938;SDS011;5008;50.656;7.188;2023-01-04T18:35:35;6.57;;;1.60;;
9938;SDS011;5008;50.656;7.188;2023-01-04T18:38:02;6.50;;;2.40;;
9938;SDS011;5008;50.656;7.188;2023-01-04T18:40:30;5.60;;;2.20;;
9938;SDS011;5008;50.656;7.188;2023-01-04T18:42:56;5.83;;;2.60;;
9938;SDS011;5008;50.656;7.188;2023-01-04T18:45:23;8.33;;;2.30;;
9938;SDS011;5008;50.656;7.188;2023-01-04T18:47:59;9.30;;;2.90;;
9938;SDS011;5008;50.656;7.188;2023-01-04T18:50:26;8.83;;;2.77;;
9938;SDS011;5008;50.656;7.188;2023-01-04T18:52:57;6.70;;;2.50;;
9938;SDS011;5008;50.656;7.188;2023-01-04T18:55:39;6.47;;;2.43;;
9938;SDS011;5008;50.656;7.188;2023-01-04T18:58:08;5.67;;;2.57;;
9938;SDS011;5008;50.656;7.188;2023-01-04T19:03:10;7.67;;;3.77;;
9938;SDS011;5008;50.656;7.188;2023-01-04T19:05:38;8.87;;;2.83;;
9938;SDS011;5008;50.656;7.188;2023-01-04T19:10:40;7.13;;;2.57;;
9938;SDS011;5008;50.656;7.188;2023-01-04T19:13:07;8.23;;;2.73;;
9938;SDS011;5008;50.656;7.188;2023-01-04T19:15:35;11.07;;;3.27;;
9938;SDS011;5008;50.656;7.188;2023-01-04T19:18:02;11.20;;;2.80;;
9938;SDS011;5008;50.656;7.188;2023-01-04T19:20:29;6.70;;;2.50;;
9938;SDS011;5008;50.656;7.188;2023-01-04T19:22:57;7.93;;;2.60;;
9938;SDS011;5008;50.656;7.188;2023-01-04T19:25:25;7.43;;;2.70;;
9938;SDS011;5008;50.656;7.188;2023-01-04T19:27:52;12.03;;;2.97;;
9938;SDS011;5008;50.656;7.188;2023-01-04T19:30:19;6.60;;;2.83;;
9938;SDS011;5008;50.656;7.188;2023-01-04T19:32:46;6.83;;;2.90;;
9938;SDS011;5008;50.656;7.188;2023-01-04T19:35:13;5.57;;;2.50;;
9938;SDS011;5008;50.656;7.188;2023-01-04T19:37:40;8.73;;;2.60;;
9938;SDS011;5008;50.656;7.188;2023-01-04T19:40:07;7.80;;;3.00;;
9938;SDS011;5008;50.656;7.188;2023-01-04T19:42:36;8.17;;;2.67;;
9938;SDS011;5008;50.656;7.188;2023-01-04T19:47:35;10.70;;;2.97;;
9938;SDS011;5008;50.656;7.188;2023-01-04T19:50:03;11.20;;;2.87;;
9938;SDS011;5008;50.656;7.188;2023-01-04T19:52:32;9.13;;;3.30;;
9938;SDS011;5008;50.656;7.188;2023-01-04T19:54:59;7.37;;;2.80;;
9938;SDS011;5008;50.656;7.188;2023-01-04T19:57:27;8.73;;;3.03;;
9938;SDS011;5008;50.656;7.188;2023-01-04T19:59:55;10.73;;;3.17;;
9938;SDS011;5008;50.656;7.188;2023-01-04T20:02:22;11.53;;;3.03;;
9938;SDS011;5008;50.656;7.188;2023-01-04T20:04:49;8.47;;;2.67;;
9938;SDS011;5008;50.656;7.188;2023-01-04T20:07:16;6.33;;;2.33;;
9938;SDS011;5008;50.656;7.188;2023-01-04T20:09:43;9.27;;;3.00;;
9938;SDS011;5008;50.656;7.188;2023-01-04T20:12:11;6.03;;;2.50;;
9938;SDS011;5008;50.656;7.188;2023-01-04T20:14:38;6.90;;;2.37;;
9938;SDS011;5008;50.656;7.188;2023-01-04T20:17:06;13.93;;;3.07;;
9938;SDS011;5008;50.656;7.188;2023-01-04T20:19:33;9.93;;;2.93;;
9938;SDS011;5008;50.656;7.188;2023-01-04T20:22:02;9.20;;;2.80;;
9938;SDS011;5008;50.656;7.188;2023-01-04T20:24:29;5.90;;;2.33;;
9938;SDS011;5008;50.656;7.188;2023-01-04T20:26:56;8.00;;;2.57;;
9938;SDS011;5008;50.656;7.188;2023-01-04T20:29:23;8.50;;;2.60;;
9938;SDS011;5008;50.656;7.188;2023-01-04T20:31:50;7.67;;;2.43;;
9938;SDS011;5008;50.656;7.188;2023-01-04T20:34:18;8.30;;;2.93;;
9938;SDS011;5008;50.656;7.188;2023-01-04T20:36:45;8.93;;;2.57;;
9938;SDS011;5008;50.656;7.188;2023-01-04T20:39:12;5.67;;;2.83;;
9938;SDS011;5008;50.656;7.188;2023-01-04T20:41:38;8.20;;;5.73;;
9938;SDS011;5008;50.656;7.188;2023-01-04T20:44:26;6.53;;;2.20;;
9938;SDS011;5008;50.656;7.188;2023-01-04T20:46:52;7.50;;;2.70;;
9938;SDS011;5008;50.656;7.188;2023-01-04T20:49:20;7.73;;;2.10;;
9938;SDS011;5008;50.656;7.188;2023-01-04T20:51:47;6.53;;;2.43;;
9938;SDS011;5008;50.656;7.188;2023-01-04T20:54:14;8.60;;;2.27;;
9938;SDS011;5008;50.656;7.188;2023-01-04T20:56:41;5.77;;;2.23;;
9938;SDS011;5008;50.656;7.188;2023-01-04T20:59:08;8.17;;;2.60;;
9938;SDS011;5008;50.656;7.188;2023-01-04T21:01:35;8.13;;;2.40;;
9938;SDS011;5008;50.656;7.188;2023-01-04T21:04:03;5.63;;;2.43;;
9938;SDS011;5008;50.656;7.188;2023-01-04T21:06:31;4.77;;;1.80;;
9938;SDS011;5008;50.656;7.188;2023-01-04T21:09:16;4.57;;;1.90;;
9938;SDS011;5008;50.656;7.188;2023-01-04T21:11:43;4.27;;;1.90;;
9938;SDS011;5008;50.656;7.188;2023-01-04T21:14:09;8.23;;;2.03;;
9938;SDS011;5008;50.656;7.188;2023-01-04T21:16:37;7.10;;;2.40;;
9938;SDS011;5008;50.656;7.188;2023-01-04T21:19:05;5.50;;;1.60;;
9938;SDS011;5008;50.656;7.188;2023-01-04T21:21:46;4.60;;;1.70;;
9938;SDS011;5008;50.656;7.188;2023-01-04T21:24:13;4.33;;;1.40;;
9938;SDS011;5008;50.656;7.188;2023-01-04T21:26:40;4.33;;;1.30;;
9938;SDS011;5008;50.656;7.188;2023-01-04T21:32:14;2.90;;;1.97;;
9938;SDS011;5008;50.656;7.188;2023-01-04T21:34:43;2.97;;;1.40;;
9938;SDS011;5008;50.656;7.188;2023-01-04T21:37:24;4.23;;;2.43;;
9938;SDS011;5008;50.656;7.188;2023-01-04T21:39:51;3.33;;;1.30;;
9938;SDS011;5008;50.656;7.188;2023-01-04T21:42:18;2.37;;;1.10;;
9938;SDS011;5008;50.656;7.188;2023-01-04T21:44:45;2.53;;;1.10;;
9938;SDS011;5008;50.656;7.188;2023-01-04T21:47:11;3.30;;;1.40;;
9938;SDS011;5008;50.656;7.188;2023-01-04T21:49:38;5.93;;;1.80;;